createdAt,value
2023-04-12T00:01:42.547Z,91.00
2023-04-12T00:04:11.194Z,91.50
2023-04-12T00:06:41.267Z,92.00
2023-04-12T00:09:10.071Z,90.90
2023-04-12T00:11:38.411Z,91.20
2023-04-12T00:14:06.736Z,91.50
2023-04-12T00:16:35.175Z,91.90
2023-04-12T00:19:04.378Z,91.70
2023-04-12T00:21:32.746Z,91.70
2023-04-12T00:24:01.179Z,92.00
2023-04-12T00:26:29.779Z,91.90
2023-04-12T00:28:58.092Z,91.50
2023-04-12T00:31:26.519Z,91.40
2023-04-12T00:33:55.182Z,91.40
2023-04-12T00:36:23.624Z,90.80
2023-04-12T00:38:52.139Z,91.10
2023-04-12T00:41:20.499Z,91.20
2023-04-12T00:43:48.884Z,91.30
2023-04-12T00:46:18.821Z,90.80
2023-04-12T00:48:49.129Z,91.00
2023-04-12T00:51:19.027Z,90.50
2023-04-12T00:53:47.420Z,91.00
2023-04-12T00:56:15.762Z,90.30
2023-04-12T00:58:44.096Z,90.30
2023-04-12T01:01:12.495Z,90.10
2023-04-12T01:03:44.111Z,91.40
2023-04-12T01:06:15.249Z,91.50
2023-04-12T01:08:53.441Z,91.30
2023-04-12T01:11:41.377Z,91.10
2023-04-12T01:14:17.686Z,91.40
2023-04-12T01:16:52.051Z,91.10
2023-04-12T01:19:20.842Z,91.20
2023-04-12T01:22:07.770Z,90.50
2023-04-12T01:24:54.090Z,90.50
2023-04-12T01:27:30.884Z,90.90
2023-04-12T01:29:59.565Z,90.50
2023-04-12T01:32:28.276Z,90.50
2023-04-12T01:34:57.146Z,91.00
2023-04-12T01:37:25.853Z,90.90
2023-04-12T01:39:54.273Z,91.00
2023-04-12T01:42:25.341Z,90.80
2023-04-12T01:44:53.665Z,91.20
2023-04-12T01:47:22.250Z,90.70
2023-04-12T01:49:56.020Z,90.60
2023-04-12T01:52:25.508Z,90.60
2023-04-12T01:54:56.245Z,90.30
2023-04-12T01:57:25.194Z,90.40
2023-04-12T01:59:56.219Z,89.30
2023-04-12T02:02:26.019Z,89.40
2023-04-12T02:04:54.696Z,90.00
2023-04-12T02:07:23.164Z,89.00
2023-04-12T02:09:51.587Z,89.90
2023-04-12T02:12:19.902Z,88.80
2023-04-12T02:14:53.002Z,89.20
2023-04-12T02:17:22.206Z,88.30
2023-04-12T02:19:50.479Z,88.60
2023-04-12T02:22:18.818Z,88.20
2023-04-12T02:24:47.193Z,88.10
2023-04-12T02:27:15.552Z,88.70
2023-04-12T02:29:43.825Z,88.40
2023-04-12T02:32:12.250Z,88.80
2023-04-12T02:34:40.870Z,88.50
2023-04-12T02:37:10.001Z,88.30
2023-04-12T02:39:38.371Z,88.40
2023-04-12T02:42:06.915Z,88.60
2023-04-12T02:44:35.296Z,87.80
2023-04-12T02:47:03.642Z,87.80
2023-04-12T02:49:32.200Z,87.50
2023-04-12T02:52:01.117Z,87.10
2023-04-12T02:54:29.501Z,87.60
2023-04-12T02:56:57.891Z,86.70
2023-04-12T02:59:26.433Z,87.00
2023-04-12T03:01:54.869Z,86.50
2023-04-12T03:04:23.745Z,86.80
2023-04-12T03:06:55.410Z,86.60
2023-04-12T03:09:24.206Z,86.20
2023-04-12T03:11:52.624Z,86.30
2023-04-12T03:14:21.262Z,86.50
2023-04-12T03:16:50.355Z,86.30
2023-04-12T03:19:19.484Z,85.80
2023-04-12T03:21:47.892Z,85.10
2023-04-12T03:24:16.426Z,84.60
2023-04-12T03:26:45.732Z,85.30
2023-04-12T03:29:14.022Z,84.90
2023-04-12T03:31:42.562Z,85.50
2023-04-12T03:34:11.200Z,85.00
2023-04-12T03:36:41.363Z,85.40
2023-04-12T03:39:09.648Z,85.20
2023-04-12T03:41:37.951Z,84.90
2023-04-12T03:44:06.437Z,83.40
2023-04-12T03:46:35.193Z,84.00
2023-04-12T03:49:03.596Z,83.30
2023-04-12T03:51:32.024Z,83.00
2023-04-12T03:54:00.414Z,83.50
2023-04-12T03:56:28.651Z,82.50
2023-04-12T03:58:57.125Z,83.70
2023-04-12T04:01:25.512Z,82.00
2023-04-12T04:03:53.941Z,80.70
2023-04-12T04:06:22.941Z,81.30
2023-04-12T04:08:51.344Z,81.90
2023-04-12T04:11:19.735Z,82.30
2023-04-12T04:13:48.167Z,82.90
2023-04-12T04:16:16.660Z,81.30
2023-04-12T04:18:45.061Z,79.90
2023-04-12T04:21:15.265Z,78.10
2023-04-12T04:23:45.869Z,76.60
2023-04-12T04:26:14.798Z,77.60
2023-04-12T04:28:46.022Z,79.50
2023-04-12T04:31:14.444Z,79.10
2023-04-12T04:33:42.764Z,78.60
2023-04-12T04:36:11.531Z,76.80
2023-04-12T04:38:41.350Z,80.40
2023-04-12T04:41:10.238Z,78.10
2023-04-12T04:43:40.942Z,77.70
2023-04-12T04:46:09.314Z,79.30
2023-04-12T04:48:37.657Z,79.00
2023-04-12T04:51:06.059Z,78.90
2023-04-12T04:53:35.042Z,75.90
2023-04-12T04:56:03.331Z,73.50
2023-04-12T04:58:32.201Z,74.10
2023-04-12T05:01:00.794Z,74.20
2023-04-12T05:03:30.790Z,77.20
2023-04-12T05:05:59.538Z,73.70
2023-04-12T05:08:29.585Z,76.90
2023-04-12T05:10:58.371Z,76.60
2023-04-12T05:13:26.857Z,75.80
2023-04-12T05:15:55.244Z,73.50
2023-04-12T05:18:23.659Z,73.30
2023-04-12T05:20:52.038Z,72.10
2023-04-12T05:23:20.408Z,73.80
2023-04-12T05:25:49.204Z,73.20
2023-04-12T05:28:18.428Z,76.30
2023-04-12T05:30:47.284Z,74.80
2023-04-12T05:33:17.420Z,75.60
2023-04-12T05:35:45.819Z,76.10
2023-04-12T05:38:14.139Z,73.40
2023-04-12T05:40:44.844Z,73.00
2023-04-12T05:43:14.039Z,73.40
2023-04-12T05:45:42.903Z,75.50
2023-04-12T05:48:11.286Z,72.40
2023-04-12T05:50:39.622Z,74.40
2023-04-12T05:53:07.991Z,72.30
2023-04-12T05:55:37.946Z,71.10
2023-04-12T05:58:06.539Z,70.50
2023-04-12T06:00:35.007Z,73.20
2023-04-12T06:03:03.632Z,74.30
2023-04-12T06:05:32.444Z,73.70
2023-04-12T06:08:02.555Z,75.20
2023-04-12T06:10:30.968Z,74.90
2023-04-12T06:12:59.329Z,69.30
2023-04-12T06:15:27.852Z,72.10
2023-04-12T06:17:56.308Z,71.50
2023-04-12T06:20:25.056Z,74.00
2023-04-12T06:22:53.394Z,69.20
2023-04-12T06:25:22.390Z,68.40
2023-04-12T06:27:50.792Z,68.10
2023-04-12T06:30:20.022Z,71.20
2023-04-12T06:32:48.687Z,67.70
2023-04-12T06:35:17.984Z,72.40
2023-04-12T06:37:46.541Z,67.60
2023-04-12T06:40:14.962Z,67.10
2023-04-12T06:42:43.445Z,72.00
2023-04-12T06:45:12.218Z,71.00
2023-04-12T06:47:40.892Z,67.10
2023-04-12T06:50:09.485Z,71.70
2023-04-12T06:52:37.841Z,66.60
2023-04-12T06:55:07.347Z,70.90
2023-04-12T06:57:36.196Z,66.60
2023-04-12T07:00:05.145Z,66.60
2023-04-12T07:02:33.691Z,69.30
2023-04-12T07:05:02.146Z,67.60
2023-04-12T07:07:30.690Z,68.10
2023-04-12T07:10:00.200Z,68.60
2023-04-12T07:12:28.658Z,66.80
2023-04-12T07:14:57.466Z,66.60
2023-04-12T07:17:28.253Z,63.70
2023-04-12T07:19:57.091Z,64.70
2023-04-12T07:22:25.582Z,67.20
2023-04-12T07:24:53.965Z,70.60
2023-04-12T07:27:22.338Z,65.10
2023-04-12T07:29:52.521Z,66.00
2023-04-12T07:32:21.001Z,67.40
2023-04-12T07:34:49.511Z,70.80
2023-04-12T07:37:19.344Z,65.40
2023-04-12T07:39:47.731Z,64.50
2023-04-12T07:42:16.649Z,70.20
2023-04-12T07:44:44.933Z,70.10
2023-04-12T07:47:13.278Z,69.70
2023-04-12T07:49:41.555Z,67.20
2023-04-12T07:52:09.850Z,69.00
2023-04-12T07:54:38.881Z,69.50
2023-04-12T07:57:10.513Z,69.40
2023-04-12T07:59:38.852Z,69.50
2023-04-12T08:02:07.375Z,69.80
2023-04-12T08:04:36.696Z,69.00
2023-04-12T08:07:05.176Z,70.50
2023-04-12T08:09:33.528Z,71.00
2023-04-12T08:12:02.615Z,69.70
2023-04-12T08:14:30.880Z,69.00
2023-04-12T08:16:59.225Z,70.30
2023-04-12T08:19:28.213Z,70.80
2023-04-12T08:21:56.607Z,69.50
2023-04-12T08:24:25.021Z,70.30
2023-04-12T08:26:54.822Z,71.70
2023-04-12T08:29:23.335Z,69.60
2023-04-12T08:31:52.000Z,70.30
2023-04-12T08:34:21.518Z,69.80
2023-04-12T08:36:49.853Z,69.00
2023-04-12T08:39:18.340Z,70.10
2023-04-12T08:41:46.663Z,69.40
2023-04-12T08:44:15.163Z,71.40
2023-04-12T08:46:44.040Z,69.30
2023-04-12T08:49:12.692Z,69.60
2023-04-12T08:51:42.096Z,69.50
2023-04-12T08:54:10.374Z,69.60
2023-04-12T08:56:38.817Z,69.80
2023-04-12T08:59:07.987Z,67.00
2023-04-12T09:01:37.568Z,66.90
2023-04-12T09:04:09.433Z,67.80
2023-04-12T09:06:38.103Z,66.50
2023-04-12T09:09:08.262Z,70.10
2023-04-12T09:11:37.427Z,69.10
2023-04-12T09:14:07.008Z,70.90
2023-04-12T09:16:43.185Z,71.10
2023-04-12T09:19:11.590Z,70.20
2023-04-12T09:21:52.695Z,68.50
2023-04-12T09:24:25.090Z,67.80
2023-04-12T09:27:10.136Z,68.10
2023-04-12T09:29:38.634Z,68.70
2023-04-12T09:32:08.587Z,69.90
2023-04-12T09:34:37.653Z,69.70
2023-04-12T09:37:21.178Z,67.60
2023-04-12T09:39:49.517Z,68.40
2023-04-12T09:42:32.614Z,69.90
2023-04-12T09:45:19.546Z,69.50
2023-04-12T09:47:47.991Z,69.00
2023-04-12T09:50:24.254Z,68.00
2023-04-12T09:52:53.966Z,70.50
2023-04-12T09:55:24.278Z,68.00
2023-04-12T09:57:53.710Z,66.90
2023-04-12T10:00:24.070Z,67.80
2023-04-12T10:02:53.761Z,67.60
2023-04-12T10:05:23.935Z,68.10
2023-04-12T10:07:53.108Z,66.90
2023-04-12T10:10:22.674Z,67.20
2023-04-12T10:12:51.567Z,67.50
2023-04-12T10:15:22.139Z,68.30
2023-04-12T10:17:52.422Z,69.50
2023-04-12T10:20:21.725Z,69.50
2023-04-12T10:22:51.309Z,70.10
2023-04-12T10:25:21.619Z,71.40
2023-04-12T10:27:50.320Z,72.80
2023-04-12T10:30:23.526Z,72.50
2023-04-12T10:33:09.084Z,72.60
2023-04-12T10:35:57.482Z,73.70
2023-04-12T10:38:28.950Z,73.70
2023-04-12T10:41:17.329Z,74.20
2023-04-12T10:43:46.778Z,73.70
2023-04-12T10:46:34.816Z,73.70
2023-04-12T10:49:09.028Z,73.60
2023-04-12T10:51:37.349Z,73.80
2023-04-12T10:54:09.709Z,73.90
2023-04-12T10:56:42.115Z,74.10
2023-04-12T10:59:11.690Z,74.20
2023-04-12T11:01:40.505Z,74.20
2023-04-12T11:04:09.721Z,74.40
2023-04-12T11:06:42.094Z,74.40
2023-04-12T11:09:26.986Z,74.60
2023-04-12T11:11:59.784Z,74.70
2023-04-12T11:14:31.500Z,74.90
2023-04-12T11:17:16.898Z,75.20
2023-04-12T11:19:46.349Z,75.40
2023-04-12T11:22:16.726Z,75.50
2023-04-12T11:24:46.179Z,75.80
2023-04-12T11:27:14.752Z,75.70
2023-04-12T11:29:44.246Z,76.40
2023-04-12T11:32:15.078Z,75.70
2023-04-12T11:34:48.463Z,75.80
2023-04-12T11:37:19.245Z,76.30
2023-04-12T11:39:48.106Z,77.30
2023-04-12T11:42:17.269Z,77.50
2023-04-12T11:44:55.302Z,78.00
2023-04-12T11:47:26.721Z,77.90
2023-04-12T11:49:55.883Z,78.40
2023-04-12T11:52:30.400Z,79.40
2023-04-12T11:55:03.127Z,79.40
2023-04-12T11:57:32.049Z,78.10
2023-04-12T12:00:01.240Z,77.50
2023-04-12T12:02:34.591Z,77.30
2023-04-12T12:05:07.902Z,77.50
2023-04-12T12:07:37.447Z,77.70
2023-04-12T12:10:06.074Z,78.20
2023-04-12T12:12:35.377Z,79.90
2023-04-12T12:15:03.871Z,80.00
2023-04-12T12:17:37.327Z,79.10
2023-04-12T12:20:05.842Z,79.00
2023-04-12T12:22:34.174Z,78.70
2023-04-12T12:25:02.711Z,79.20
2023-04-12T12:27:32.557Z,78.70
2023-04-12T12:30:02.495Z,78.60
2023-04-12T12:32:35.095Z,78.60
2023-04-12T12:35:03.964Z,78.90
2023-04-12T12:37:32.750Z,79.80
2023-04-12T12:40:17.648Z,80.90
2023-04-12T12:42:48.054Z,81.40
2023-04-12T12:45:17.680Z,81.50
2023-04-12T12:47:48.299Z,81.90
2023-04-12T12:50:18.772Z,81.80
2023-04-12T12:52:47.676Z,81.60
2023-04-12T12:55:16.780Z,81.80
2023-04-12T12:57:52.216Z,81.20
2023-04-12T13:00:30.598Z,81.20
2023-04-12T13:02:59.646Z,80.70
2023-04-12T13:05:28.392Z,80.30
2023-04-12T13:07:56.722Z,79.80
2023-04-12T13:10:25.196Z,79.40
2023-04-12T13:12:53.565Z,79.30
2023-04-12T13:15:24.198Z,79.20
2023-04-12T13:17:54.051Z,79.10
2023-04-12T13:20:23.193Z,79.10
2023-04-12T13:22:53.064Z,79.00
2023-04-12T13:25:22.068Z,79.00
2023-04-12T13:27:50.613Z,79.00
2023-04-12T13:30:20.043Z,79.10
2023-04-12T13:32:48.401Z,79.10
2023-04-12T13:35:16.876Z,79.10
2023-04-12T13:37:45.157Z,79.00
2023-04-12T13:40:13.559Z,79.00
2023-04-12T13:42:41.863Z,79.10
2023-04-12T13:45:12.096Z,79.10
2023-04-12T13:47:40.608Z,79.10
2023-04-12T13:50:09.248Z,79.60
2023-04-12T13:52:37.677Z,79.20
2023-04-12T13:55:09.065Z,79.10
2023-04-12T13:57:37.427Z,79.10
2023-04-12T14:00:06.323Z,79.20
2023-04-12T14:02:34.693Z,79.40
2023-04-12T14:05:03.519Z,79.30
2023-04-12T14:07:32.283Z,79.40
2023-04-12T14:10:00.542Z,80.10
2023-04-12T14:12:28.802Z,79.90
2023-04-12T14:14:57.104Z,79.60
2023-04-12T14:17:25.655Z,79.50
2023-04-12T14:19:54.081Z,79.50
2023-04-12T14:22:22.339Z,79.50
2023-04-12T14:24:50.991Z,79.50
2023-04-12T14:27:19.301Z,79.50
2023-04-12T14:29:47.628Z,79.60
2023-04-12T14:32:15.927Z,79.60
2023-04-12T14:34:44.419Z,79.60
2023-04-12T14:37:12.668Z,79.70
2023-04-12T14:39:41.146Z,79.50
2023-04-12T14:42:09.532Z,79.60
2023-04-12T14:44:37.844Z,79.60
2023-04-12T14:47:06.167Z,79.60
2023-04-12T14:49:34.426Z,79.80
2023-04-12T14:52:03.028Z,80.30
2023-04-12T14:54:31.624Z,80.70
2023-04-12T14:57:00.520Z,81.40
2023-04-12T14:59:28.834Z,81.20
2023-04-12T15:01:57.407Z,81.10
2023-04-12T15:04:26.051Z,80.40
2023-04-12T15:06:54.450Z,80.30
2023-04-12T15:09:22.810Z,82.10
2023-04-12T15:11:51.654Z,82.70
2023-04-12T15:14:21.167Z,82.90
2023-04-12T15:16:50.664Z,82.40
2023-04-12T15:19:22.920Z,80.90
2023-04-12T15:21:52.729Z,80.70
2023-04-12T15:24:21.747Z,80.90
2023-04-12T15:26:51.689Z,80.70
2023-04-12T15:29:20.767Z,80.90
2023-04-12T15:31:49.134Z,81.10
2023-04-12T15:34:17.617Z,81.00
2023-04-12T15:36:46.868Z,81.30
2023-04-12T15:39:15.786Z,81.40
2023-04-12T15:41:44.113Z,81.00
2023-04-12T15:44:14.385Z,81.00
2023-04-12T15:46:43.101Z,80.60
2023-04-12T15:49:11.976Z,80.50
2023-04-12T15:51:40.364Z,80.30
2023-04-12T15:54:08.691Z,80.20
2023-04-12T15:56:38.858Z,80.00
2023-04-12T15:59:07.172Z,80.00
2023-04-12T16:01:36.684Z,79.90
2023-04-12T16:04:06.209Z,79.90
2023-04-12T16:06:36.620Z,79.70
2023-04-12T16:09:06.006Z,79.70
2023-04-12T16:11:36.312Z,79.70
2023-04-12T16:14:04.894Z,79.60
2023-04-12T16:16:33.210Z,79.70
2023-04-12T16:19:02.169Z,79.80
2023-04-12T16:21:31.224Z,79.90
2023-04-12T16:23:59.518Z,79.70
2023-04-12T16:26:28.102Z,79.80
2023-04-12T16:28:57.041Z,79.70
2023-04-12T16:31:26.238Z,79.70
2023-04-12T16:33:55.235Z,79.70
2023-04-12T16:36:24.540Z,79.70
2023-04-12T16:38:55.909Z,79.70
2023-04-12T16:41:24.413Z,79.70
2023-04-12T16:43:54.736Z,80.00
2023-04-12T16:46:23.251Z,80.30
2023-04-12T16:48:51.641Z,80.40
2023-04-12T16:51:20.078Z,80.80
2023-04-12T16:53:48.349Z,80.20
2023-04-12T16:56:17.994Z,80.30
2023-04-12T16:58:46.300Z,80.50
2023-04-12T17:01:22.438Z,80.90
2023-04-12T17:03:50.771Z,81.10
2023-04-12T17:06:20.411Z,81.60
2023-04-12T17:08:49.970Z,81.40
2023-04-12T17:11:18.251Z,81.30
2023-04-12T17:13:47.717Z,81.40
2023-04-12T17:16:17.146Z,81.70
2023-04-12T17:18:45.839Z,81.60
2023-04-12T17:21:15.685Z,81.80
2023-04-12T17:23:44.258Z,81.70
2023-04-12T17:26:12.541Z,81.10
2023-04-12T17:28:41.132Z,81.70
2023-04-12T17:31:10.322Z,81.00
2023-04-12T17:33:38.655Z,80.90
2023-04-12T17:36:11.432Z,81.00
2023-04-12T17:38:40.056Z,80.90
2023-04-12T17:41:10.252Z,80.80
2023-04-12T17:43:38.721Z,80.60
2023-04-12T17:46:08.199Z,80.70
2023-04-12T17:48:36.799Z,80.40
2023-04-12T17:51:06.467Z,80.40
2023-04-12T17:53:34.760Z,80.50
2023-04-12T17:56:03.763Z,80.60
2023-04-12T17:58:32.110Z,80.60
2023-04-12T18:01:00.601Z,80.80
2023-04-12T18:03:29.102Z,80.80
2023-04-12T18:05:59.827Z,80.60
2023-04-12T18:08:28.200Z,81.00
2023-04-12T18:10:56.946Z,80.70
2023-04-12T18:13:25.372Z,80.70
2023-04-12T18:15:53.742Z,80.60
2023-04-12T18:18:22.151Z,80.30
2023-04-12T18:20:50.522Z,80.50
2023-04-12T18:23:18.852Z,80.90
2023-04-12T18:25:47.144Z,81.40
2023-04-12T18:35:19.374Z,81.80
2023-04-12T18:37:47.854Z,81.90
2023-04-12T18:40:16.956Z,81.60
2023-04-12T18:42:47.033Z,82.20
2023-04-12T18:45:15.849Z,82.20
2023-04-12T18:47:45.591Z,81.70
2023-04-12T18:50:15.118Z,82.50
2023-04-12T18:52:43.434Z,82.40
2023-04-12T18:55:11.832Z,82.80
2023-04-12T18:57:40.337Z,82.80
2023-04-12T19:00:15.036Z,82.90
2023-04-12T19:02:43.570Z,83.20
2023-04-12T19:05:12.660Z,83.40
2023-04-12T19:07:40.949Z,83.50
2023-04-12T19:10:10.807Z,83.80
2023-04-12T19:14:08.584Z,83.10
2023-04-12T19:16:37.911Z,84.10
2023-04-12T19:19:06.383Z,84.10
2023-04-12T19:21:35.201Z,84.10
2023-04-12T19:24:03.455Z,82.90
2023-04-12T19:26:32.893Z,83.90
2023-04-12T19:29:01.327Z,82.90
2023-04-12T19:31:29.664Z,82.50
2023-04-12T19:33:58.418Z,84.50
2023-04-12T19:36:26.973Z,83.90
2023-04-12T19:38:55.321Z,82.70
2023-04-12T19:41:24.672Z,84.00
2023-04-12T19:43:53.157Z,84.70
2023-04-12T19:46:22.034Z,85.10
2023-04-12T19:48:50.372Z,83.10
